sensor_id;sensor_type;location;lat;lon;timestamp;P1;durP1;ratioP1;P2;durP2;ratioP2
2706;SDS011;7819;48.046;7.642;2022-10-17T00:01:53;4.07;;;2.30;;
2706;SDS011;7819;48.046;7.642;2022-10-17T00:04:19;5.03;;;2.27;;
2706;SDS011;7819;48.046;7.642;2022-10-17T00:06:44;7.80;;;2.53;;
2706;SDS011;7819;48.046;7.642;2022-10-17T00:09:09;3.63;;;2.57;;
2706;SDS011;7819;48.046;7.642;2022-10-17T00:11:34;2.87;;;2.57;;
2706;SDS011;7819;48.046;7.642;2022-10-17T00:13:59;2.93;;;2.50;;
2706;SDS011;7819;48.046;7.642;2022-10-17T00:18:50;3.80;;;2.67;;
2706;SDS011;7819;48.046;7.642;2022-10-17T00:21:16;7.80;;;3.40;;
2706;SDS011;7819;48.046;7.642;2022-10-17T00:23:42;4.37;;;3.47;;
2706;SDS011;7819;48.046;7.642;2022-10-17T00:26:07;4.10;;;2.30;;
2706;SDS011;7819;48.046;7.642;2022-10-17T00:28:32;5.50;;;3.27;;
2706;SDS011;7819;48.046;7.642;2022-10-17T00:31:01;3.13;;;2.83;;
2706;SDS011;7819;48.046;7.642;2022-10-17T00:33:27;3.87;;;3.40;;
2706;SDS011;7819;48.046;7.642;2022-10-17T00:36:08;5.50;;;3.07;;
2706;SDS011;7819;48.046;7.642;2022-10-17T00:38:35;4.30;;;2.73;;
2706;SDS011;7819;48.046;7.642;2022-10-17T00:41:00;3.97;;;2.63;;
2706;SDS011;7819;48.046;7.642;2022-10-17T00:43:26;6.80;;;3.20;;
2706;SDS011;7819;48.046;7.642;2022-10-17T00:45:51;9.73;;;3.50;;
2706;SDS011;7819;48.046;7.642;2022-10-17T00:48:16;2.83;;;2.53;;
2706;SDS011;7819;48.046;7.642;2022-10-17T00:50:42;7.33;;;2.90;;
2706;SDS011;7819;48.046;7.642;2022-10-17T00:53:08;3.10;;;2.80;;
2706;SDS011;7819;48.046;7.642;2022-10-17T00:55:49;2.93;;;2.60;;
2706;SDS011;7819;48.046;7.642;2022-10-17T00:58:15;4.23;;;2.80;;
2706;SDS011;7819;48.046;7.642;2022-10-17T01:00:41;3.37;;;3.07;;
2706;SDS011;7819;48.046;7.642;2022-10-17T01:03:06;11.30;;;4.23;;
2706;SDS011;7819;48.046;7.642;2022-10-17T01:05:32;3.20;;;2.53;;
2706;SDS011;7819;48.046;7.642;2022-10-17T01:07:57;2.70;;;2.50;;
2706;SDS011;7819;48.046;7.642;2022-10-17T01:10:25;3.07;;;2.70;;
2706;SDS011;7819;48.046;7.642;2022-10-17T01:15:34;5.80;;;3.47;;
2706;SDS011;7819;48.046;7.642;2022-10-17T01:33:24;4.37;;;3.40;;
2706;SDS011;7819;48.046;7.642;2022-10-17T01:35:59;2.87;;;2.20;;
2706;SDS011;7819;48.046;7.642;2022-10-17T01:38:47;4.93;;;2.80;;
2706;SDS011;7819;48.046;7.642;2022-10-17T01:41:15;4.93;;;2.43;;
2706;SDS011;7819;48.046;7.642;2022-10-17T01:43:44;4.73;;;3.10;;
2706;SDS011;7819;48.046;7.642;2022-10-17T01:46:19;3.20;;;2.53;;
2706;SDS011;7819;48.046;7.642;2022-10-17T01:48:44;3.33;;;2.37;;
2706;SDS011;7819;48.046;7.642;2022-10-17T01:51:15;3.23;;;2.77;;
2706;SDS011;7819;48.046;7.642;2022-10-17T01:53:45;3.13;;;2.57;;
2706;SDS011;7819;48.046;7.642;2022-10-17T01:56:11;3.30;;;2.80;;
2706;SDS011;7819;48.046;7.642;2022-10-17T01:58:42;3.50;;;3.07;;
2706;SDS011;7819;48.046;7.642;2022-10-17T02:01:09;3.50;;;2.63;;
2706;SDS011;7819;48.046;7.642;2022-10-17T02:03:36;2.90;;;2.30;;
2706;SDS011;7819;48.046;7.642;2022-10-17T02:06:02;3.07;;;2.77;;
2706;SDS011;7819;48.046;7.642;2022-10-17T02:08:29;6.53;;;3.33;;
2706;SDS011;7819;48.046;7.642;2022-10-17T02:11:04;6.20;;;2.77;;
2706;SDS011;7819;48.046;7.642;2022-10-17T02:24:25;3.80;;;3.50;;
2706;SDS011;7819;48.046;7.642;2022-10-17T02:29:51;10.10;;;3.00;;
2706;SDS011;7819;48.046;7.642;2022-10-17T02:32:41;3.77;;;2.90;;
2706;SDS011;7819;48.046;7.642;2022-10-17T02:35:03;3.10;;;2.60;;
2706;SDS011;7819;48.046;7.642;2022-10-17T02:37:31;2.90;;;2.67;;
2706;SDS011;7819;48.046;7.642;2022-10-17T02:39:56;3.30;;;2.93;;
2706;SDS011;7819;48.046;7.642;2022-10-17T02:42:23;2.90;;;2.40;;
2706;SDS011;7819;48.046;7.642;2022-10-17T02:44:48;3.00;;;2.70;;
2706;SDS011;7819;48.046;7.642;2022-10-17T02:47:19;9.30;;;2.97;;
2706;SDS011;7819;48.046;7.642;2022-10-17T02:49:52;5.20;;;4.03;;
2706;SDS011;7819;48.046;7.642;2022-10-17T02:54:47;3.75;;;2.70;;
2706;SDS011;7819;48.046;7.642;2022-10-17T02:59:45;3.30;;;2.87;;
2706;SDS011;7819;48.046;7.642;2022-10-17T03:02:11;3.20;;;2.90;;
2706;SDS011;7819;48.046;7.642;2022-10-17T03:04:36;3.53;;;2.73;;
2706;SDS011;7819;48.046;7.642;2022-10-17T03:07:01;3.87;;;3.13;;
2706;SDS011;7819;48.046;7.642;2022-10-17T03:09:26;3.13;;;2.83;;
2706;SDS011;7819;48.046;7.642;2022-10-17T03:11:52;6.73;;;3.20;;
2706;SDS011;7819;48.046;7.642;2022-10-17T03:14:17;4.33;;;2.90;;
2706;SDS011;7819;48.046;7.642;2022-10-17T03:16:42;4.60;;;4.20;;
2706;SDS011;7819;48.046;7.642;2022-10-17T03:19:07;3.93;;;3.47;;
2706;SDS011;7819;48.046;7.642;2022-10-17T03:21:33;3.97;;;3.57;;
2706;SDS011;7819;48.046;7.642;2022-10-17T03:24:00;3.10;;;2.80;;
2706;SDS011;7819;48.046;7.642;2022-10-17T03:26:25;3.40;;;3.10;;
2706;SDS011;7819;48.046;7.642;2022-10-17T03:28:50;5.50;;;4.30;;
2706;SDS011;7819;48.046;7.642;2022-10-17T03:31:15;3.40;;;2.40;;
2706;SDS011;7819;48.046;7.642;2022-10-17T03:33:41;3.63;;;2.90;;
2706;SDS011;7819;48.046;7.642;2022-10-17T03:36:07;3.40;;;3.10;;
2706;SDS011;7819;48.046;7.642;2022-10-17T03:38:33;3.87;;;3.10;;
2706;SDS011;7819;48.046;7.642;2022-10-17T03:40:58;4.97;;;3.93;;
2706;SDS011;7819;48.046;7.642;2022-10-17T03:43:23;7.00;;;5.27;;
2706;SDS011;7819;48.046;7.642;2022-10-17T03:45:49;5.43;;;4.47;;
2706;SDS011;7819;48.046;7.642;2022-10-17T03:48:14;5.57;;;3.70;;
2706;SDS011;7819;48.046;7.642;2022-10-17T03:50:39;3.83;;;2.80;;
2706;SDS011;7819;48.046;7.642;2022-10-17T03:53:04;4.13;;;3.73;;
2706;SDS011;7819;48.046;7.642;2022-10-17T03:55:29;4.60;;;3.40;;
2706;SDS011;7819;48.046;7.642;2022-10-17T03:57:54;6.33;;;3.23;;
2706;SDS011;7819;48.046;7.642;2022-10-17T04:00:20;4.53;;;3.40;;
2706;SDS011;7819;48.046;7.642;2022-10-17T04:02:45;3.40;;;2.67;;
2706;SDS011;7819;48.046;7.642;2022-10-17T04:05:10;5.57;;;2.87;;
2706;SDS011;7819;48.046;7.642;2022-10-17T04:07:35;5.00;;;3.40;;
2706;SDS011;7819;48.046;7.642;2022-10-17T04:10:03;3.83;;;3.33;;
2706;SDS011;7819;48.046;7.642;2022-10-17T04:12:29;5.93;;;3.77;;
2706;SDS011;7819;48.046;7.642;2022-10-17T04:14:54;3.30;;;3.00;;
2706;SDS011;7819;48.046;7.642;2022-10-17T04:17:19;3.77;;;3.20;;
2706;SDS011;7819;48.046;7.642;2022-10-17T04:19:44;3.50;;;2.87;;
2706;SDS011;7819;48.046;7.642;2022-10-17T04:22:09;3.40;;;3.07;;
2706;SDS011;7819;48.046;7.642;2022-10-17T04:24:35;12.70;;;11.40;;
2706;SDS011;7819;48.046;7.642;2022-10-17T04:27:00;14.10;;;12.90;;
2706;SDS011;7819;48.046;7.642;2022-10-17T04:29:25;9.10;;;7.97;;
2706;SDS011;7819;48.046;7.642;2022-10-17T04:31:50;5.07;;;4.70;;
2706;SDS011;7819;48.046;7.642;2022-10-17T04:34:16;5.40;;;4.60;;
2706;SDS011;7819;48.046;7.642;2022-10-17T04:36:41;3.50;;;3.20;;
2706;SDS011;7819;48.046;7.642;2022-10-17T04:39:06;5.27;;;3.57;;
2706;SDS011;7819;48.046;7.642;2022-10-17T04:41:32;3.90;;;2.80;;
2706;SDS011;7819;48.046;7.642;2022-10-17T04:43:57;6.23;;;3.60;;
2706;SDS011;7819;48.046;7.642;2022-10-17T04:46:22;3.73;;;3.10;;
2706;SDS011;7819;48.046;7.642;2022-10-17T04:48:47;3.40;;;3.10;;
2706;SDS011;7819;48.046;7.642;2022-10-17T04:51:13;4.80;;;3.00;;
2706;SDS011;7819;48.046;7.642;2022-10-17T04:53:39;3.63;;;3.27;;
2706;SDS011;7819;48.046;7.642;2022-10-17T04:56:11;3.70;;;2.70;;
2706;SDS011;7819;48.046;7.642;2022-10-17T04:58:37;6.80;;;4.37;;
2706;SDS011;7819;48.046;7.642;2022-10-17T05:01:06;5.47;;;4.17;;
2706;SDS011;7819;48.046;7.642;2022-10-17T05:03:32;6.63;;;4.03;;
2706;SDS011;7819;48.046;7.642;2022-10-17T05:05:57;3.83;;;3.23;;
2706;SDS011;7819;48.046;7.642;2022-10-17T05:08:22;3.93;;;3.17;;
2706;SDS011;7819;48.046;7.642;2022-10-17T05:10:47;4.00;;;3.30;;
2706;SDS011;7819;48.046;7.642;2022-10-17T05:13:13;4.13;;;3.40;;
2706;SDS011;7819;48.046;7.642;2022-10-17T05:15:38;6.47;;;3.27;;
2706;SDS011;7819;48.046;7.642;2022-10-17T05:18:04;4.30;;;3.90;;
2706;SDS011;7819;48.046;7.642;2022-10-17T05:20:29;4.03;;;2.80;;
2706;SDS011;7819;48.046;7.642;2022-10-17T05:22:54;5.03;;;4.53;;
2706;SDS011;7819;48.046;7.642;2022-10-17T05:25:22;5.93;;;3.97;;
2706;SDS011;7819;48.046;7.642;2022-10-17T05:27:48;3.20;;;2.90;;
2706;SDS011;7819;48.046;7.642;2022-10-17T05:30:13;4.27;;;3.73;;
2706;SDS011;7819;48.046;7.642;2022-10-17T05:32:38;4.47;;;3.50;;
2706;SDS011;7819;48.046;7.642;2022-10-17T05:35:03;6.63;;;3.37;;
2706;SDS011;7819;48.046;7.642;2022-10-17T05:37:29;7.23;;;3.70;;
2706;SDS011;7819;48.046;7.642;2022-10-17T05:39:55;3.87;;;3.43;;
2706;SDS011;7819;48.046;7.642;2022-10-17T05:42:20;4.80;;;3.23;;
2706;SDS011;7819;48.046;7.642;2022-10-17T05:44:46;3.70;;;2.87;;
2706;SDS011;7819;48.046;7.642;2022-10-17T05:47:11;5.03;;;3.90;;
2706;SDS011;7819;48.046;7.642;2022-10-17T05:49:36;10.13;;;9.37;;
2706;SDS011;7819;48.046;7.642;2022-10-17T05:52:01;9.40;;;8.60;;
2706;SDS011;7819;48.046;7.642;2022-10-17T05:54:26;9.33;;;4.83;;
2706;SDS011;7819;48.046;7.642;2022-10-17T05:56:52;10.73;;;4.13;;
2706;SDS011;7819;48.046;7.642;2022-10-17T05:59:18;9.40;;;3.50;;
2706;SDS011;7819;48.046;7.642;2022-10-17T06:01:43;5.13;;;3.50;;
2706;SDS011;7819;48.046;7.642;2022-10-17T06:04:08;3.13;;;2.70;;
2706;SDS011;7819;48.046;7.642;2022-10-17T06:06:35;3.73;;;3.10;;
2706;SDS011;7819;48.046;7.642;2022-10-17T06:09:00;5.00;;;3.90;;
2706;SDS011;7819;48.046;7.642;2022-10-17T06:11:25;4.40;;;3.70;;
2706;SDS011;7819;48.046;7.642;2022-10-17T06:13:51;2.80;;;2.60;;
2706;SDS011;7819;48.046;7.642;2022-10-17T06:16:16;8.70;;;3.60;;
2706;SDS011;7819;48.046;7.642;2022-10-17T06:18:41;6.23;;;3.33;;
2706;SDS011;7819;48.046;7.642;2022-10-17T06:21:07;4.77;;;3.73;;
2706;SDS011;7819;48.046;7.642;2022-10-17T06:23:33;6.83;;;3.33;;
2706;SDS011;7819;48.046;7.642;2022-10-17T06:26:02;4.33;;;3.40;;
2706;SDS011;7819;48.046;7.642;2022-10-17T06:28:27;3.60;;;3.30;;
2706;SDS011;7819;48.046;7.642;2022-10-17T06:30:52;2.70;;;2.30;;
2706;SDS011;7819;48.046;7.642;2022-10-17T06:33:17;4.50;;;2.97;;
2706;SDS011;7819;48.046;7.642;2022-10-17T06:35:49;3.57;;;3.27;;
2706;SDS011;7819;48.046;7.642;2022-10-17T06:38:14;3.23;;;2.93;;
2706;SDS011;7819;48.046;7.642;2022-10-17T06:40:39;3.57;;;3.27;;
2706;SDS011;7819;48.046;7.642;2022-10-17T06:43:05;3.77;;;3.00;;
2706;SDS011;7819;48.046;7.642;2022-10-17T06:45:30;4.73;;;3.10;;
2706;SDS011;7819;48.046;7.642;2022-10-17T06:47:55;3.70;;;3.40;;
2706;SDS011;7819;48.046;7.642;2022-10-17T06:50:20;3.50;;;3.20;;
2706;SDS011;7819;48.046;7.642;2022-10-17T06:52:49;3.30;;;2.80;;
2706;SDS011;7819;48.046;7.642;2022-10-17T06:55:14;5.33;;;3.33;;
2706;SDS011;7819;48.046;7.642;2022-10-17T06:57:39;6.07;;;3.67;;
2706;SDS011;7819;48.046;7.642;2022-10-17T07:00:04;7.63;;;3.70;;
2706;SDS011;7819;48.046;7.642;2022-10-17T07:02:30;4.43;;;3.27;;
2706;SDS011;7819;48.046;7.642;2022-10-17T07:04:55;3.90;;;3.60;;
2706;SDS011;7819;48.046;7.642;2022-10-17T07:07:20;5.77;;;3.20;;
2706;SDS011;7819;48.046;7.642;2022-10-17T07:09:46;3.17;;;2.87;;
2706;SDS011;7819;48.046;7.642;2022-10-17T07:12:11;4.50;;;3.47;;
2706;SDS011;7819;48.046;7.642;2022-10-17T07:14:36;3.70;;;3.17;;
2706;SDS011;7819;48.046;7.642;2022-10-17T07:17:02;4.47;;;3.50;;
2706;SDS011;7819;48.046;7.642;2022-10-17T07:19:27;4.83;;;3.70;;
2706;SDS011;7819;48.046;7.642;2022-10-17T07:21:53;5.43;;;3.33;;
2706;SDS011;7819;48.046;7.642;2022-10-17T07:24:18;6.63;;;3.83;;
2706;SDS011;7819;48.046;7.642;2022-10-17T07:26:43;5.80;;;3.77;;
2706;SDS011;7819;48.046;7.642;2022-10-17T07:29:08;7.73;;;3.30;;
2706;SDS011;7819;48.046;7.642;2022-10-17T07:31:34;5.80;;;4.43;;
2706;SDS011;7819;48.046;7.642;2022-10-17T07:33:59;5.90;;;3.90;;
2706;SDS011;7819;48.046;7.642;2022-10-17T07:36:24;5.47;;;3.63;;
2706;SDS011;7819;48.046;7.642;2022-10-17T07:38:49;6.03;;;5.43;;
2706;SDS011;7819;48.046;7.642;2022-10-17T07:41:15;4.40;;;4.00;;
2706;SDS011;7819;48.046;7.642;2022-10-17T07:43:40;6.03;;;3.30;;
2706;SDS011;7819;48.046;7.642;2022-10-17T07:46:07;3.60;;;3.30;;
2706;SDS011;7819;48.046;7.642;2022-10-17T07:48:32;4.50;;;4.10;;
2706;SDS011;7819;48.046;7.642;2022-10-17T07:51:00;3.63;;;3.33;;
2706;SDS011;7819;48.046;7.642;2022-10-17T07:53:25;4.53;;;4.13;;
2706;SDS011;7819;48.046;7.642;2022-10-17T07:55:51;4.53;;;4.13;;
2706;SDS011;7819;48.046;7.642;2022-10-17T07:58:16;4.30;;;3.80;;
2706;SDS011;7819;48.046;7.642;2022-10-17T08:00:41;4.00;;;3.30;;
2706;SDS011;7819;48.046;7.642;2022-10-17T08:03:06;7.73;;;3.80;;
2706;SDS011;7819;48.046;7.642;2022-10-17T08:05:32;4.57;;;4.10;;
2706;SDS011;7819;48.046;7.642;2022-10-17T08:07:57;5.33;;;3.60;;
2706;SDS011;7819;48.046;7.642;2022-10-17T08:10:23;6.30;;;3.90;;
2706;SDS011;7819;48.046;7.642;2022-10-17T08:12:53;5.03;;;3.23;;
2706;SDS011;7819;48.046;7.642;2022-10-17T08:15:19;4.43;;;3.20;;
2706;SDS011;7819;48.046;7.642;2022-10-17T08:17:44;7.33;;;3.67;;
2706;SDS011;7819;48.046;7.642;2022-10-17T08:20:09;6.43;;;4.00;;
2706;SDS011;7819;48.046;7.642;2022-10-17T08:22:35;4.40;;;3.50;;
2706;SDS011;7819;48.046;7.642;2022-10-17T08:25:00;5.43;;;2.90;;
2706;SDS011;7819;48.046;7.642;2022-10-17T08:27:25;9.30;;;4.20;;
2706;SDS011;7819;48.046;7.642;2022-10-17T08:29:53;4.27;;;3.23;;
2706;SDS011;7819;48.046;7.642;2022-10-17T08:32:22;7.43;;;5.70;;
2706;SDS011;7819;48.046;7.642;2022-10-17T08:34:49;4.37;;;3.97;;
2706;SDS011;7819;48.046;7.642;2022-10-17T08:37:14;5.80;;;4.73;;
2706;SDS011;7819;48.046;7.642;2022-10-17T08:39:40;6.93;;;3.40;;
2706;SDS011;7819;48.046;7.642;2022-10-17T08:47:18;3.90;;;3.23;;
2706;SDS011;7819;48.046;7.642;2022-10-17T08:49:46;7.70;;;3.40;;
2706;SDS011;7819;48.046;7.642;2022-10-17T08:54:46;5.10;;;3.20;;
2706;SDS011;7819;48.046;7.642;2022-10-17T08:57:12;3.30;;;2.93;;
2706;SDS011;7819;48.046;7.642;2022-10-17T08:59:39;4.53;;;3.07;;
2706;SDS011;7819;48.046;7.642;2022-10-17T09:07:25;3.87;;;2.60;;
2706;SDS011;7819;48.046;7.642;2022-10-17T09:10:08;3.43;;;3.03;;
2706;SDS011;7819;48.046;7.642;2022-10-17T09:15:08;3.50;;;3.20;;
2706;SDS011;7819;48.046;7.642;2022-10-17T09:17:39;3.77;;;2.93;;
2706;SDS011;7819;48.046;7.642;2022-10-17T09:20:17;2.70;;;2.50;;
2706;SDS011;7819;48.046;7.642;2022-10-17T09:22:45;4.20;;;3.37;;
2706;SDS011;7819;48.046;7.642;2022-10-17T09:25:12;4.43;;;2.60;;
2706;SDS011;7819;48.046;7.642;2022-10-17T09:27:43;3.80;;;3.40;;
2706;SDS011;7819;48.046;7.642;2022-10-17T09:32:55;4.77;;;2.27;;
2706;SDS011;7819;48.046;7.642;2022-10-17T09:35:21;5.30;;;3.60;;
2706;SDS011;7819;48.046;7.642;2022-10-17T09:37:46;2.90;;;2.30;;
2706;SDS011;7819;48.046;7.642;2022-10-17T09:40:26;3.80;;;3.17;;
2706;SDS011;7819;48.046;7.642;2022-10-17T09:42:54;5.83;;;2.40;;
2706;SDS011;7819;48.046;7.642;2022-10-17T09:45:20;10.13;;;2.57;;
2706;SDS011;7819;48.046;7.642;2022-10-17T09:50:23;3.83;;;2.53;;
2706;SDS011;7819;48.046;7.642;2022-10-17T09:52:49;3.57;;;2.97;;
2706;SDS011;7819;48.046;7.642;2022-10-17T09:55:19;2.80;;;2.60;;
2706;SDS011;7819;48.046;7.642;2022-10-17T10:00:21;4.43;;;2.40;;
2706;SDS011;7819;48.046;7.642;2022-10-17T10:02:46;4.03;;;2.30;;
2706;SDS011;7819;48.046;7.642;2022-10-17T10:05:16;3.87;;;2.40;;
2706;SDS011;7819;48.046;7.642;2022-10-17T10:08:00;4.50;;;2.73;;
2706;SDS011;7819;48.046;7.642;2022-10-17T10:10:26;4.30;;;2.40;;
2706;SDS011;7819;48.046;7.642;2022-10-17T10:13:05;4.30;;;2.83;;
2706;SDS011;7819;48.046;7.642;2022-10-17T10:15:35;3.50;;;2.13;;
2706;SDS011;7819;48.046;7.642;2022-10-17T10:18:01;3.90;;;2.40;;
2706;SDS011;7819;48.046;7.642;2022-10-17T10:23:35;5.13;;;2.67;;
2706;SDS011;7819;48.046;7.642;2022-10-17T10:25:56;6.40;;;2.67;;
2706;SDS011;7819;48.046;7.642;2022-10-17T10:28:22;2.40;;;2.20;;
2706;SDS011;7819;48.046;7.642;2022-10-17T10:30:49;6.90;;;3.43;;
2706;SDS011;7819;48.046;7.642;2022-10-17T10:33:17;3.60;;;2.27;;
2706;SDS011;7819;48.046;7.642;2022-10-17T10:35:43;3.73;;;2.90;;
2706;SDS011;7819;48.046;7.642;2022-10-17T10:38:15;2.90;;;2.23;;
2706;SDS011;7819;48.046;7.642;2022-10-17T10:40:45;3.03;;;2.27;;
2706;SDS011;7819;48.046;7.642;2022-10-17T10:43:19;4.33;;;1.90;;
2706;SDS011;7819;48.046;7.642;2022-10-17T10:45:45;2.50;;;2.13;;
2706;SDS011;7819;48.046;7.642;2022-10-17T10:50:37;3.97;;;2.45;;
2706;SDS011;7819;48.046;7.642;2022-10-17T10:55:45;4.67;;;2.23;;
2706;SDS011;7819;48.046;7.642;2022-10-17T10:58:17;5.97;;;2.03;;
2706;SDS011;7819;48.046;7.642;2022-10-17T11:00:44;4.47;;;2.33;;
2706;SDS011;7819;48.046;7.642;2022-10-17T11:03:13;4.73;;;2.30;;
2706;SDS011;7819;48.046;7.642;2022-10-17T11:08:25;3.70;;;2.20;;
2706;SDS011;7819;48.046;7.642;2022-10-17T11:13:33;5.67;;;1.70;;
2706;SDS011;7819;48.046;7.642;2022-10-17T11:16:03;3.67;;;1.87;;
2706;SDS011;7819;48.046;7.642;2022-10-17T11:18:34;2.17;;;1.40;;
2706;SDS011;7819;48.046;7.642;2022-10-17T11:21:06;2.43;;;1.50;;
2706;SDS011;7819;48.046;7.642;2022-10-17T11:23:37;3.93;;;1.70;;
2706;SDS011;7819;48.046;7.642;2022-10-17T11:26:12;4.17;;;2.40;;
2706;SDS011;7819;48.046;7.642;2022-10-17T11:28:39;2.70;;;2.00;;
2706;SDS011;7819;48.046;7.642;2022-10-17T11:31:06;3.30;;;1.30;;
2706;SDS011;7819;48.046;7.642;2022-10-17T11:36:02;3.57;;;2.70;;
2706;SDS011;7819;48.046;7.642;2022-10-17T11:41:06;1.93;;;1.17;;
2706;SDS011;7819;48.046;7.642;2022-10-17T11:43:41;1.87;;;1.07;;
2706;SDS011;7819;48.046;7.642;2022-10-17T11:46:17;2.27;;;1.60;;
2706;SDS011;7819;48.046;7.642;2022-10-17T11:51:12;1.10;;;0.70;;
2706;SDS011;7819;48.046;7.642;2022-10-17T11:53:48;3.30;;;1.17;;
2706;SDS011;7819;48.046;7.642;2022-10-17T11:56:17;2.83;;;1.10;;
2706;SDS011;7819;48.046;7.642;2022-10-17T12:01:42;3.00;;;1.00;;
2706;SDS011;7819;48.046;7.642;2022-10-17T12:05:15;2.03;;;1.03;;
2706;SDS011;7819;48.046;7.642;2022-10-17T12:07:47;1.10;;;0.80;;
2706;SDS011;7819;48.046;7.642;2022-10-17T12:10:01;1.70;;;1.00;;
2706;SDS011;7819;48.046;7.642;2022-10-17T12:12:31;3.30;;;1.60;;
2706;SDS011;7819;48.046;7.642;2022-10-17T12:15:42;6.00;;;2.83;;
2706;SDS011;7819;48.046;7.642;2022-10-17T12:17:45;1.33;;;0.87;;
2706;SDS011;7819;48.046;7.642;2022-10-17T12:25:34;2.03;;;1.20;;
2706;SDS011;7819;48.046;7.642;2022-10-17T12:30:31;3.03;;;1.60;;
2706;SDS011;7819;48.046;7.642;2022-10-17T12:33:01;2.23;;;1.10;;
2706;SDS011;7819;48.046;7.642;2022-10-17T12:35:27;1.17;;;0.90;;
2706;SDS011;7819;48.046;7.642;2022-10-17T12:42:59;2.10;;;1.00;;
2706;SDS011;7819;48.046;7.642;2022-10-17T12:48:08;2.47;;;1.10;;
2706;SDS011;7819;48.046;7.642;2022-10-17T12:53:17;2.77;;;1.47;;
2706;SDS011;7819;48.046;7.642;2022-10-17T12:55:47;1.60;;;1.07;;
2706;SDS011;7819;48.046;7.642;2022-10-17T12:58:15;2.50;;;1.10;;
2706;SDS011;7819;48.046;7.642;2022-10-17T13:00:50;1.47;;;1.07;;
2706;SDS011;7819;48.046;7.642;2022-10-17T13:03:17;1.83;;;1.03;;
2706;SDS011;7819;48.046;7.642;2022-10-17T13:05:44;2.07;;;1.00;;
2706;SDS011;7819;48.046;7.642;2022-10-17T13:08:14;1.37;;;1.20;;
2706;SDS011;7819;48.046;7.642;2022-10-17T13:10:48;2.30;;;1.40;;
2706;SDS011;7819;48.046;7.642;2022-10-17T13:13:20;1.40;;;1.10;;
2706;SDS011;7819;48.046;7.642;2022-10-17T13:15:51;1.50;;;0.90;;
2706;SDS011;7819;48.046;7.642;2022-10-17T13:18:21;2.90;;;1.33;;
2706;SDS011;7819;48.046;7.642;2022-10-17T13:21:19;2.80;;;1.40;;
2706;SDS011;7819;48.046;7.642;2022-10-17T13:23:38;2.03;;;1.10;;
2706;SDS011;7819;48.046;7.642;2022-10-17T13:28:28;1.42;;;0.88;;
2706;SDS011;7819;48.046;7.642;2022-10-17T13:30:53;4.07;;;1.80;;
2706;SDS011;7819;48.046;7.642;2022-10-17T13:35:53;3.07;;;1.00;;
2706;SDS011;7819;48.046;7.642;2022-10-17T13:38:18;4.53;;;1.10;;
2706;SDS011;7819;48.046;7.642;2022-10-17T13:40:46;1.60;;;1.23;;
2706;SDS011;7819;48.046;7.642;2022-10-17T13:43:15;6.30;;;1.30;;
2706;SDS011;7819;48.046;7.642;2022-10-17T13:45:44;2.70;;;1.20;;
2706;SDS011;7819;48.046;7.642;2022-10-17T13:48:16;2.67;;;1.33;;
2706;SDS011;7819;48.046;7.642;2022-10-17T13:50:42;1.43;;;1.20;;
2706;SDS011;7819;48.046;7.642;2022-10-17T13:53:29;2.17;;;1.20;;
2706;SDS011;7819;48.046;7.642;2022-10-17T13:58:43;1.97;;;1.07;;
2706;SDS011;7819;48.046;7.642;2022-10-17T14:01:09;2.53;;;1.10;;
2706;SDS011;7819;48.046;7.642;2022-10-17T14:03:36;2.57;;;1.17;;
2706;SDS011;7819;48.046;7.642;2022-10-17T14:08:28;2.40;;;1.60;;
2706;SDS011;7819;48.046;7.642;2022-10-17T14:10:54;3.10;;;1.50;;
2706;SDS011;7819;48.046;7.642;2022-10-17T14:13:20;2.23;;;1.13;;
2706;SDS011;7819;48.046;7.642;2022-10-17T14:15:46;2.60;;;2.10;;
2706;SDS011;7819;48.046;7.642;2022-10-17T14:18:23;1.83;;;1.00;;
2706;SDS011;7819;48.046;7.642;2022-10-17T14:20:48;1.70;;;1.10;;
2706;SDS011;7819;48.046;7.642;2022-10-17T14:23:30;2.73;;;1.33;;
2706;SDS011;7819;48.046;7.642;2022-10-17T14:26:29;1.30;;;1.00;;
2706;SDS011;7819;48.046;7.642;2022-10-17T14:28:49;1.67;;;1.47;;
2706;SDS011;7819;48.046;7.642;2022-10-17T14:31:22;2.90;;;1.10;;
2706;SDS011;7819;48.046;7.642;2022-10-17T14:33:50;2.30;;;1.20;;
2706;SDS011;7819;48.046;7.642;2022-10-17T14:36:15;1.83;;;1.27;;
2706;SDS011;7819;48.046;7.642;2022-10-17T14:38:44;3.53;;;1.10;;
2706;SDS011;7819;48.046;7.642;2022-10-17T14:43:38;2.17;;;1.37;;
2706;SDS011;7819;48.046;7.642;2022-10-17T14:46:03;2.47;;;1.80;;
2706;SDS011;7819;48.046;7.642;2022-10-17T14:48:29;1.47;;;1.23;;
2706;SDS011;7819;48.046;7.642;2022-10-17T14:53:31;1.20;;;1.10;;
2706;SDS011;7819;48.046;7.642;2022-10-17T14:55:57;1.90;;;1.20;;
2706;SDS011;7819;48.046;7.642;2022-10-17T14:58:24;9.43;;;1.63;;
2706;SDS011;7819;48.046;7.642;2022-10-17T15:00:51;2.07;;;1.40;;
2706;SDS011;7819;48.046;7.642;2022-10-17T15:03:16;3.27;;;1.43;;
2706;SDS011;7819;48.046;7.642;2022-10-17T15:05:43;1.60;;;1.13;;
2706;SDS011;7819;48.046;7.642;2022-10-17T15:08:12;2.73;;;1.00;;
2706;SDS011;7819;48.046;7.642;2022-10-17T15:10:38;2.80;;;1.50;;
2706;SDS011;7819;48.046;7.642;2022-10-17T15:13:05;1.53;;;1.20;;
2706;SDS011;7819;48.046;7.642;2022-10-17T15:15:31;1.80;;;1.47;;
2706;SDS011;7819;48.046;7.642;2022-10-17T15:17:56;2.40;;;1.20;;
2706;SDS011;7819;48.046;7.642;2022-10-17T15:20:21;1.97;;;1.33;;
2706;SDS011;7819;48.046;7.642;2022-10-17T15:22:50;1.47;;;1.10;;
2706;SDS011;7819;48.046;7.642;2022-10-17T15:25:15;4.10;;;2.00;;
2706;SDS011;7819;48.046;7.642;2022-10-17T15:27:40;3.03;;;1.60;;
2706;SDS011;7819;48.046;7.642;2022-10-17T15:30:10;3.37;;;1.33;;
2706;SDS011;7819;48.046;7.642;2022-10-17T15:32:40;3.93;;;2.03;;
2706;SDS011;7819;48.046;7.642;2022-10-17T15:35:05;2.23;;;1.33;;
2706;SDS011;7819;48.046;7.642;2022-10-17T15:37:32;2.90;;;1.53;;
2706;SDS011;7819;48.046;7.642;2022-10-17T15:39:57;2.53;;;1.50;;
2706;SDS011;7819;48.046;7.642;2022-10-17T15:42:27;6.30;;;5.80;;
2706;SDS011;7819;48.046;7.642;2022-10-17T15:44:52;2.10;;;1.33;;
2706;SDS011;7819;48.046;7.642;2022-10-17T15:47:20;6.10;;;3.23;;
2706;SDS011;7819;48.046;7.642;2022-10-17T15:49:46;1.73;;;1.60;;
2706;SDS011;7819;48.046;7.642;2022-10-17T15:52:11;1.90;;;1.43;;
2706;SDS011;7819;48.046;7.642;2022-10-17T15:54:36;2.67;;;1.33;;
2706;SDS011;7819;48.046;7.642;2022-10-17T15:57:01;2.00;;;1.60;;
2706;SDS011;7819;48.046;7.642;2022-10-17T15:59:30;4.97;;;1.57;;
2706;SDS011;7819;48.046;7.642;2022-10-17T16:01:55;5.60;;;4.00;;
2706;SDS011;7819;48.046;7.642;2022-10-17T16:04:21;3.00;;;2.03;;
2706;SDS011;7819;48.046;7.642;2022-10-17T16:06:48;2.77;;;2.17;;
2706;SDS011;7819;48.046;7.642;2022-10-17T16:09:13;4.00;;;1.60;;
2706;SDS011;7819;48.046;7.642;2022-10-17T16:11:39;4.00;;;2.00;;
2706;SDS011;7819;48.046;7.642;2022-10-17T16:14:06;3.33;;;1.90;;
2706;SDS011;7819;48.046;7.642;2022-10-17T16:16:31;2.87;;;2.00;;
2706;SDS011;7819;48.046;7.642;2022-10-17T16:18:56;2.60;;;1.63;;
2706;SDS011;7819;48.046;7.642;2022-10-17T16:21:24;4.23;;;1.90;;
2706;SDS011;7819;48.046;7.642;2022-10-17T16:23:50;2.93;;;2.70;;
2706;SDS011;7819;48.046;7.642;2022-10-17T16:26:15;5.60;;;2.80;;
2706;SDS011;7819;48.046;7.642;2022-10-17T16:28:41;6.93;;;5.63;;
2706;SDS011;7819;48.046;7.642;2022-10-17T16:31:17;12.13;;;8.80;;
2706;SDS011;7819;48.046;7.642;2022-10-17T16:33:43;10.83;;;6.77;;
2706;SDS011;7819;48.046;7.642;2022-10-17T16:36:08;6.20;;;4.40;;
2706;SDS011;7819;48.046;7.642;2022-10-17T16:38:34;4.10;;;2.33;;
2706;SDS011;7819;48.046;7.642;2022-10-17T16:40:59;26.07;;;20.17;;
2706;SDS011;7819;48.046;7.642;2022-10-17T16:43:24;30.47;;;22.20;;
2706;SDS011;7819;48.046;7.642;2022-10-17T16:45:49;17.30;;;14.17;;
2706;SDS011;7819;48.046;7.642;2022-10-17T16:48:15;5.97;;;5.37;;
2706;SDS011;7819;48.046;7.642;2022-10-17T16:50:41;3.40;;;2.93;;
2706;SDS011;7819;48.046;7.642;2022-10-17T16:53:06;4.70;;;2.60;;
2706;SDS011;7819;48.046;7.642;2022-10-17T16:55:31;4.83;;;3.00;;
2706;SDS011;7819;48.046;7.642;2022-10-17T16:57:57;4.13;;;2.90;;
2706;SDS011;7819;48.046;7.642;2022-10-17T17:00:23;4.50;;;2.90;;
2706;SDS011;7819;48.046;7.642;2022-10-17T17:02:50;4.37;;;2.60;;
2706;SDS011;7819;48.046;7.642;2022-10-17T17:05:15;4.53;;;2.10;;
2706;SDS011;7819;48.046;7.642;2022-10-17T17:07:40;9.30;;;7.77;;
2706;SDS011;7819;48.046;7.642;2022-10-17T17:10:06;19.47;;;17.97;;
2706;SDS011;7819;48.046;7.642;2022-10-17T17:12:32;7.77;;;7.17;;
2706;SDS011;7819;48.046;7.642;2022-10-17T17:14:57;6.27;;;5.87;;
2706;SDS011;7819;48.046;7.642;2022-10-17T17:17:22;3.67;;;3.37;;